C719 Diversion




Date Battery Voltage (V) Gauge Height (ft) Canal Flow (cfs) Gate 1 Height (ft) Gate 2 Height (ft) Pond (ft) Pond Height (ft) Pond Battery Voltage (V) Pond RF Signal (db) Call Fails Total Fails Tries Auto Pond Pond Set (ft) Gate 1 Warning Gate 2 Warning Gate 1 Up Total Gate 1 Down Total Gate 2 Up Total Gate 2 Down Total Settle Count Auto CFS CFS Set (cfs)
05/01/2018 13.0 0.28 5.99 0.19 0.19
05/02/2018 12.9 0.28 5.99 0.19 0.19
05/03/2018 12.9 0.40 10.42 0.34 0.27
05/04/2018 13.1 0.39 9.61 0.44 0.19
05/05/2018 13.1 0.33 7.49 0.45 0.08
05/06/2018 13.0 0.36 8.50 0.49 0.08
05/07/2018 13.1 0.36 8.40 0.49 0.08
05/08/2018 13.1 0.35 8.32 0.50 0.08
05/09/2018 13.0 0.35 8.14 0.50 0.08
05/10/2018 13.0 0.44 11.62 0.50 0.25
05/11/2018 13.0 0.44 11.56 0.37 0.29
05/12/2018 12.8 0.34 7.98 0.22 0.21
05/13/2018 13.0 0.34 7.98 0.09 0.25
05/14/2018 13.0 0.34 8.01 0.08 0.27
05/15/2018 13.0 0.34 8.02 0.22 0.21
05/16/2018 13.0 0.34 8.01 0.05 0.26
05/17/2018 12.9 0.38 9.20 0.15 0.24
05/18/2018 12.9 0.41 10.55 0.21 0.14
05/19/2018 13.0 0.45 11.96 0.23 -0.32
05/20/2018 13.0 0.40 10.00 0.11 0.23
05/21/2018 13.0 0.38 9.45 0.08 0.20
05/22/2018 13.0 0.40 10.00 0.20 0.13
05/23/2018 13.0 0.40 10.18 0.17 0.17
05/24/2018 13.0 0.36 8.69 0.15 0.14
05/25/2018 13.0 0.34 7.93 0.21 0.09
05/26/2018 13.0 0.34 8.00 0.22 0.08
05/27/2018 13.0 0.34 8.00 0.22 0.08
05/28/2018 13.0 0.34 8.03 0.15 0.15
05/29/2018 13.0 0.34 7.98 0.15 0.14
05/30/2018 13.0 0.34 8.02 0.05 0.20
05/31/2018 13.0 0.39 9.50 0.08 0.23
Average 8.82 0.00
Maximum 11.96
Minimum 5.99
Total Volume (AF) 542.41 0.00